sensor_id;sensor_type;location;lat;lon;timestamp;temperature;humidity
17341;DHT22;8788;49.930;8.660;2023-01-16T04:04:32;6.20;99.90
17341;DHT22;8788;49.930;8.660;2023-01-16T04:07:05;6.20;99.90
17341;DHT22;8788;49.930;8.660;2023-01-16T04:09:36;6.10;99.90
17341;DHT22;8788;49.930;8.660;2023-01-16T04:12:06;6.10;99.90
17341;DHT22;8788;49.930;8.660;2023-01-16T04:14:35;6.20;99.90
17341;DHT22;8788;49.930;8.660;2023-01-16T04:17:03;6.10;99.90
17341;DHT22;8788;49.930;8.660;2023-01-16T04:19:33;6.20;99.90
17341;DHT22;8788;49.930;8.660;2023-01-16T04:22:05;6.20;99.90
17341;DHT22;8788;49.930;8.660;2023-01-16T04:24:33;6.20;99.90
17341;DHT22;8788;49.930;8.660;2023-01-16T04:27:00;6.20;99.90
17341;DHT22;8788;49.930;8.660;2023-01-16T04:29:27;6.20;99.90
17341;DHT22;8788;49.930;8.660;2023-01-16T04:31:54;6.20;99.90
17341;DHT22;8788;49.930;8.660;2023-01-16T04:34:21;6.20;99.90
17341;DHT22;8788;49.930;8.660;2023-01-16T04:36:50;6.30;99.90
17341;DHT22;8788;49.930;8.660;2023-01-16T04:39:17;6.30;99.90
17341;DHT22;8788;49.930;8.660;2023-01-16T04:41:44;6.30;99.90
17341;DHT22;8788;49.930;8.660;2023-01-16T04:44:16;6.40;99.90
17341;DHT22;8788;49.930;8.660;2023-01-16T04:46:44;6.40;99.90
17341;DHT22;8788;49.930;8.660;2023-01-16T04:49:11;6.30;99.90
17341;DHT22;8788;49.930;8.660;2023-01-16T04:51:41;6.40;99.90
17341;DHT22;8788;49.930;8.660;2023-01-16T04:54:14;6.40;99.90
17341;DHT22;8788;49.930;8.660;2023-01-16T04:56:41;6.50;99.90
17341;DHT22;8788;49.930;8.660;2023-01-16T04:59:09;6.50;99.90
17341;DHT22;8788;49.930;8.660;2023-01-16T05:01:36;6.50;99.90
17341;DHT22;8788;49.930;8.660;2023-01-16T05:04:03;6.60;99.90
17341;DHT22;8788;49.930;8.660;2023-01-16T05:06:31;6.60;99.90
17341;DHT22;8788;49.930;8.660;2023-01-16T05:08:58;6.60;99.90
17341;DHT22;8788;49.930;8.660;2023-01-16T05:11:26;6.60;99.90
17341;DHT22;8788;49.930;8.660;2023-01-16T05:13:53;6.60;99.90
17341;DHT22;8788;49.930;8.660;2023-01-16T05:16:21;6.60;99.90
17341;DHT22;8788;49.930;8.660;2023-01-16T05:18:48;6.50;99.90
17341;DHT22;8788;49.930;8.660;2023-01-16T05:21:15;6.60;99.90
17341;DHT22;8788;49.930;8.660;2023-01-16T05:23:42;6.60;99.90
17341;DHT22;8788;49.930;8.660;2023-01-16T05:26:09;6.60;99.90
17341;DHT22;8788;49.930;8.660;2023-01-16T05:28:37;6.60;99.90
17341;DHT22;8788;49.930;8.660;2023-01-16T05:31:05;6.70;99.90
17341;DHT22;8788;49.930;8.660;2023-01-16T05:33:32;6.60;99.90
17341;DHT22;8788;49.930;8.660;2023-01-16T05:35:59;6.70;99.90
17341;DHT22;8788;49.930;8.660;2023-01-16T05:38:26;6.60;99.90
17341;DHT22;8788;49.930;8.660;2023-01-16T05:40:53;6.60;99.90
17341;DHT22;8788;49.930;8.660;2023-01-16T05:43:20;6.60;99.90
17341;DHT22;8788;49.930;8.660;2023-01-16T05:45:49;6.60;99.90
17341;DHT22;8788;49.930;8.660;2023-01-16T05:48:16;6.60;99.90
17341;DHT22;8788;49.930;8.660;2023-01-16T05:50:43;6.60;99.90
17341;DHT22;8788;49.930;8.660;2023-01-16T05:53:11;6.60;99.90
17341;DHT22;8788;49.930;8.660;2023-01-16T05:55:41;6.60;99.90
17341;DHT22;8788;49.930;8.660;2023-01-16T05:58:09;6.60;99.90
17341;DHT22;8788;49.930;8.660;2023-01-16T06:00:37;6.60;99.90
17341;DHT22;8788;49.930;8.660;2023-01-16T06:03:06;6.60;99.90
17341;DHT22;8788;49.930;8.660;2023-01-16T06:05:34;6.60;99.90
17341;DHT22;8788;49.930;8.660;2023-01-16T06:08:02;6.60;99.90
17341;DHT22;8788;49.930;8.660;2023-01-16T06:10:30;6.60;99.90
17341;DHT22;8788;49.930;8.660;2023-01-16T06:12:57;6.70;99.90
17341;DHT22;8788;49.930;8.660;2023-01-16T06:15:24;6.70;99.90
17341;DHT22;8788;49.930;8.660;2023-01-16T06:17:51;6.70;99.90
17341;DHT22;8788;49.930;8.660;2023-01-16T06:20:21;6.70;99.90
17341;DHT22;8788;49.930;8.660;2023-01-16T06:22:48;6.70;99.90
17341;DHT22;8788;49.930;8.660;2023-01-16T06:25:16;6.80;99.90
17341;DHT22;8788;49.930;8.660;2023-01-16T06:27:47;6.80;99.90
17341;DHT22;8788;49.930;8.660;2023-01-16T06:30:15;6.80;99.90
17341;DHT22;8788;49.930;8.660;2023-01-16T06:32:42;6.80;99.90
17341;DHT22;8788;49.930;8.660;2023-01-16T06:35:10;6.70;99.90
17341;DHT22;8788;49.930;8.660;2023-01-16T06:37:38;6.80;99.90
17341;DHT22;8788;49.930;8.660;2023-01-16T06:40:07;6.70;99.90
17341;DHT22;8788;49.930;8.660;2023-01-16T06:42:34;6.80;99.90
17341;DHT22;8788;49.930;8.660;2023-01-16T06:45:01;6.80;99.90
17341;DHT22;8788;49.930;8.660;2023-01-16T06:47:28;6.70;99.90
17341;DHT22;8788;49.930;8.660;2023-01-16T06:49:56;6.70;99.90
17341;DHT22;8788;49.930;8.660;2023-01-16T06:52:23;6.60;99.90
17341;DHT22;8788;49.930;8.660;2023-01-16T06:54:52;6.60;99.90
17341;DHT22;8788;49.930;8.660;2023-01-16T06:57:19;6.60;99.90
17341;DHT22;8788;49.930;8.660;2023-01-16T06:59:46;6.60;99.90
17341;DHT22;8788;49.930;8.660;2023-01-16T07:02:15;6.50;99.90
17341;DHT22;8788;49.930;8.660;2023-01-16T07:04:42;6.50;99.90
17341;DHT22;8788;49.930;8.660;2023-01-16T07:07:10;6.50;99.90
17341;DHT22;8788;49.930;8.660;2023-01-16T07:09:37;6.50;99.90
17341;DHT22;8788;49.930;8.660;2023-01-16T07:12:06;6.50;99.90
17341;DHT22;8788;49.930;8.660;2023-01-16T07:14:33;6.50;99.90
17341;DHT22;8788;49.930;8.660;2023-01-16T07:17:17;6.50;99.90
17341;DHT22;8788;49.930;8.660;2023-01-16T07:20:02;6.50;99.90
17341;DHT22;8788;49.930;8.660;2023-01-16T07:22:47;6.50;99.90
17341;DHT22;8788;49.930;8.660;2023-01-16T07:25:17;6.40;99.90
17341;DHT22;8788;49.930;8.660;2023-01-16T07:27:48;6.40;99.90
17341;DHT22;8788;49.930;8.660;2023-01-16T07:30:17;6.30;99.90
17341;DHT22;8788;49.930;8.660;2023-01-16T07:32:45;6.30;99.90
17341;DHT22;8788;49.930;8.660;2023-01-16T07:35:12;6.30;99.90
17341;DHT22;8788;49.930;8.660;2023-01-16T07:37:39;6.30;99.90
17341;DHT22;8788;49.930;8.660;2023-01-16T07:40:09;6.20;99.90
17341;DHT22;8788;49.930;8.660;2023-01-16T07:42:36;6.20;99.90
17341;DHT22;8788;49.930;8.660;2023-01-16T07:45:06;6.20;99.90
17341;DHT22;8788;49.930;8.660;2023-01-16T07:47:33;6.20;99.90
17341;DHT22;8788;49.930;8.660;2023-01-16T07:50:00;6.20;99.90
17341;DHT22;8788;49.930;8.660;2023-01-16T07:52:28;6.20;99.90
17341;DHT22;8788;49.930;8.660;2023-01-16T07:54:55;6.20;99.90
17341;DHT22;8788;49.930;8.660;2023-01-16T07:57:22;6.30;99.90
17341;DHT22;8788;49.930;8.660;2023-01-16T07:59:50;6.30;99.90
17341;DHT22;8788;49.930;8.660;2023-01-16T08:02:19;6.30;99.90
17341;DHT22;8788;49.930;8.660;2023-01-16T08:04:46;6.40;99.90
17341;DHT22;8788;49.930;8.660;2023-01-16T08:07:13;6.40;99.90
17341;DHT22;8788;49.930;8.660;2023-01-16T08:09:40;6.40;99.90
17341;DHT22;8788;49.930;8.660;2023-01-16T08:12:07;6.40;99.90
17341;DHT22;8788;49.930;8.660;2023-01-16T08:14:34;6.40;99.90
17341;DHT22;8788;49.930;8.660;2023-01-16T08:17:01;6.40;99.90
17341;DHT22;8788;49.930;8.660;2023-01-16T08:19:30;6.40;99.90
17341;DHT22;8788;49.930;8.660;2023-01-16T08:21:57;6.50;99.90
17341;DHT22;8788;49.930;8.660;2023-01-16T08:24:24;6.50;99.90
17341;DHT22;8788;49.930;8.660;2023-01-16T08:26:52;6.50;99.90
17341;DHT22;8788;49.930;8.660;2023-01-16T08:29:19;6.50;99.90
17341;DHT22;8788;49.930;8.660;2023-01-16T08:31:46;6.50;99.90
17341;DHT22;8788;49.930;8.660;2023-01-16T08:34:14;6.50;99.90
17341;DHT22;8788;49.930;8.660;2023-01-16T08:36:42;6.50;99.90
17341;DHT22;8788;49.930;8.660;2023-01-16T08:39:10;6.50;99.90
17341;DHT22;8788;49.930;8.660;2023-01-16T08:41:37;6.50;99.90
17341;DHT22;8788;49.930;8.660;2023-01-16T08:44:22;6.60;99.90
17341;DHT22;8788;49.930;8.660;2023-01-16T08:47:10;6.60;99.90
17341;DHT22;8788;49.930;8.660;2023-01-16T08:49:56;6.60;99.90
17341;DHT22;8788;49.930;8.660;2023-01-16T08:52:43;6.50;99.90
17341;DHT22;8788;49.930;8.660;2023-01-16T08:55:10;6.60;99.90
17341;DHT22;8788;49.930;8.660;2023-01-16T08:57:38;6.60;99.90
17341;DHT22;8788;49.930;8.660;2023-01-16T09:00:06;6.60;99.90
17341;DHT22;8788;49.930;8.660;2023-01-16T09:02:34;6.70;99.90
17341;DHT22;8788;49.930;8.660;2023-01-16T09:05:02;6.70;99.90
17341;DHT22;8788;49.930;8.660;2023-01-16T09:07:29;6.70;99.90
17341;DHT22;8788;49.930;8.660;2023-01-16T09:09:58;6.80;99.90
17341;DHT22;8788;49.930;8.660;2023-01-16T09:12:25;6.80;99.90
17341;DHT22;8788;49.930;8.660;2023-01-16T09:15:09;6.80;99.90
17341;DHT22;8788;49.930;8.660;2023-01-16T09:17:36;6.80;99.90
17341;DHT22;8788;49.930;8.660;2023-01-16T09:20:04;6.80;99.90
17341;DHT22;8788;49.930;8.660;2023-01-16T09:22:31;6.80;99.90
17341;DHT22;8788;49.930;8.660;2023-01-16T09:25:00;6.70;99.90
17341;DHT22;8788;49.930;8.660;2023-01-16T09:27:27;6.80;99.90
17341;DHT22;8788;49.930;8.660;2023-01-16T09:29:55;6.90;99.90
17341;DHT22;8788;49.930;8.660;2023-01-16T09:32:22;6.90;99.90
17341;DHT22;8788;49.930;8.660;2023-01-16T09:34:49;6.90;99.90
17341;DHT22;8788;49.930;8.660;2023-01-16T09:37:16;6.90;99.90
17341;DHT22;8788;49.930;8.660;2023-01-16T09:39:44;6.90;99.90
17341;DHT22;8788;49.930;8.660;2023-01-16T09:42:38;7.00;99.90
17341;DHT22;8788;49.930;8.660;2023-01-16T09:45:28;7.00;99.90
17341;DHT22;8788;49.930;8.660;2023-01-16T09:47:59;7.10;99.90
17341;DHT22;8788;49.930;8.660;2023-01-16T09:50:32;7.10;99.90
17341;DHT22;8788;49.930;8.660;2023-01-16T09:53:03;7.20;99.90
17341;DHT22;8788;49.930;8.660;2023-01-16T09:55:50;7.20;99.90
17341;DHT22;8788;49.930;8.660;2023-01-16T09:58:48;7.20;99.90
17341;DHT22;8788;49.930;8.660;2023-01-16T10:01:19;7.20;99.90
17341;DHT22;8788;49.930;8.660;2023-01-16T10:03:47;7.20;99.90
17341;DHT22;8788;49.930;8.660;2023-01-16T10:06:21;7.20;99.90
17341;DHT22;8788;49.930;8.660;2023-01-16T10:09:02;7.20;99.90
17341;DHT22;8788;49.930;8.660;2023-01-16T10:11:39;7.20;99.90
17341;DHT22;8788;49.930;8.660;2023-01-16T10:14:21;7.20;99.90
17341;DHT22;8788;49.930;8.660;2023-01-16T10:16:58;7.20;99.90
17341;DHT22;8788;49.930;8.660;2023-01-16T10:19:39;7.20;99.90
17341;DHT22;8788;49.930;8.660;2023-01-16T10:22:21;7.20;99.90
17341;DHT22;8788;49.930;8.660;2023-01-16T10:24:58;7.10;99.90
17341;DHT22;8788;49.930;8.660;2023-01-16T10:27:37;7.10;99.90
17341;DHT22;8788;49.930;8.660;2023-01-16T10:30:14;7.10;99.90
17341;DHT22;8788;49.930;8.660;2023-01-16T10:32:47;7.10;99.90
17341;DHT22;8788;49.930;8.660;2023-01-16T10:35:20;7.00;99.90
17341;DHT22;8788;49.930;8.660;2023-01-16T10:37:49;7.00;99.90
17341;DHT22;8788;49.930;8.660;2023-01-16T10:40:20;7.00;99.90
17341;DHT22;8788;49.930;8.660;2023-01-16T10:42:58;7.00;99.90
17341;DHT22;8788;49.930;8.660;2023-01-16T10:45:45;7.00;99.90
17341;DHT22;8788;49.930;8.660;2023-01-16T10:48:39;6.90;99.90
17341;DHT22;8788;49.930;8.660;2023-01-16T10:51:23;6.90;99.90
17341;DHT22;8788;49.930;8.660;2023-01-16T10:53:51;6.90;99.90
17341;DHT22;8788;49.930;8.660;2023-01-16T10:56:18;6.90;99.90
17341;DHT22;8788;49.930;8.660;2023-01-16T10:58:45;6.90;99.90
17341;DHT22;8788;49.930;8.660;2023-01-16T11:01:15;6.80;99.90
17341;DHT22;8788;49.930;8.660;2023-01-16T11:03:45;6.80;99.90
17341;DHT22;8788;49.930;8.660;2023-01-16T11:06:15;6.70;99.90
17341;DHT22;8788;49.930;8.660;2023-01-16T11:08:47;6.70;99.90
17341;DHT22;8788;49.930;8.660;2023-01-16T11:11:15;6.70;99.90
17341;DHT22;8788;49.930;8.660;2023-01-16T11:13:57;6.70;99.90
17341;DHT22;8788;49.930;8.660;2023-01-16T11:16:55;6.70;99.90
17341;DHT22;8788;49.930;8.660;2023-01-16T11:19:42;6.60;99.90
17341;DHT22;8788;49.930;8.660;2023-01-16T11:22:22;6.60;99.90
17341;DHT22;8788;49.930;8.660;2023-01-16T11:24:53;6.60;99.90
17341;DHT22;8788;49.930;8.660;2023-01-16T11:27:26;6.50;99.90
17341;DHT22;8788;49.930;8.660;2023-01-16T11:29:55;6.50;99.90
17341;DHT22;8788;49.930;8.660;2023-01-16T11:32:26;6.50;99.90
17341;DHT22;8788;49.930;8.660;2023-01-16T11:34:56;6.50;99.90
17341;DHT22;8788;49.930;8.660;2023-01-16T11:37:26;6.50;99.90
17341;DHT22;8788;49.930;8.660;2023-01-16T11:39:57;6.50;99.90
17341;DHT22;8788;49.930;8.660;2023-01-16T11:42:27;6.50;99.90
17341;DHT22;8788;49.930;8.660;2023-01-16T11:45:14;6.50;99.90
17341;DHT22;8788;49.930;8.660;2023-01-16T11:48:05;6.50;99.90
17341;DHT22;8788;49.930;8.660;2023-01-16T11:50:49;6.60;99.90
17341;DHT22;8788;49.930;8.660;2023-01-16T11:53:17;6.60;99.90
17341;DHT22;8788;49.930;8.660;2023-01-16T11:55:55;6.70;99.90
17341;DHT22;8788;49.930;8.660;2023-01-16T11:58:35;6.90;99.90
17341;DHT22;8788;49.930;8.660;2023-01-16T12:01:11;7.40;99.90
17341;DHT22;8788;49.930;8.660;2023-01-16T12:04:01;7.70;99.90
17341;DHT22;8788;49.930;8.660;2023-01-16T12:06:41;7.90;99.90
17341;DHT22;8788;49.930;8.660;2023-01-16T12:09:23;7.90;99.90
17341;DHT22;8788;49.930;8.660;2023-01-16T12:12:24;7.90;99.90
17341;DHT22;8788;49.930;8.660;2023-01-16T12:15:19;7.90;99.90
17341;DHT22;8788;49.930;8.660;2023-01-16T12:18:01;7.90;99.90
17341;DHT22;8788;49.930;8.660;2023-01-16T12:20:45;8.00;99.90
17341;DHT22;8788;49.930;8.660;2023-01-16T12:23:32;7.90;99.90
17341;DHT22;8788;49.930;8.660;2023-01-16T12:26:10;7.90;99.90
17341;DHT22;8788;49.930;8.660;2023-01-16T12:28:48;8.00;99.90
17341;DHT22;8788;49.930;8.660;2023-01-16T12:31:27;8.90;99.90
17341;DHT22;8788;49.930;8.660;2023-01-16T12:34:11;9.60;99.90
17341;DHT22;8788;49.930;8.660;2023-01-16T12:36:49;9.60;99.90
17341;DHT22;8788;49.930;8.660;2023-01-16T12:39:22;9.40;99.90
17341;DHT22;8788;49.930;8.660;2023-01-16T12:42:00;9.30;99.90
17341;DHT22;8788;49.930;8.660;2023-01-16T12:45:10;9.30;99.90
17341;DHT22;8788;49.930;8.660;2023-01-16T12:47:48;9.40;99.90
17341;DHT22;8788;49.930;8.660;2023-01-16T12:50:25;9.40;99.90
17341;DHT22;8788;49.930;8.660;2023-01-16T12:53:22;9.60;99.90
17341;DHT22;8788;49.930;8.660;2023-01-16T12:55:56;9.70;99.90
17341;DHT22;8788;49.930;8.660;2023-01-16T12:58:28;9.80;99.90
17341;DHT22;8788;49.930;8.660;2023-01-16T13:01:05;10.00;99.90
17341;DHT22;8788;49.930;8.660;2023-01-16T13:03:36;10.30;99.90
17341;DHT22;8788;49.930;8.660;2023-01-16T13:06:10;10.60;99.90
17341;DHT22;8788;49.930;8.660;2023-01-16T13:08:44;10.60;99.90
17341;DHT22;8788;49.930;8.660;2023-01-16T13:11:20;10.40;99.90
17341;DHT22;8788;49.930;8.660;2023-01-16T13:14:10;10.20;99.90
17341;DHT22;8788;49.930;8.660;2023-01-16T13:16:41;9.90;99.90
17341;DHT22;8788;49.930;8.660;2023-01-16T13:19:14;9.60;99.90
17341;DHT22;8788;49.930;8.660;2023-01-16T13:21:50;9.40;99.90
17341;DHT22;8788;49.930;8.660;2023-01-16T13:24:23;9.40;99.90
17341;DHT22;8788;49.930;8.660;2023-01-16T13:26:57;9.40;99.90
17341;DHT22;8788;49.930;8.660;2023-01-16T13:29:31;9.40;99.90
17341;DHT22;8788;49.930;8.660;2023-01-16T13:32:09;9.40;99.90
17341;DHT22;8788;49.930;8.660;2023-01-16T13:34:41;9.50;99.90
17341;DHT22;8788;49.930;8.660;2023-01-16T13:40:46;9.60;99.90
17341;DHT22;8788;49.930;8.660;2023-01-16T13:43:19;9.50;99.90
17341;DHT22;8788;49.930;8.660;2023-01-16T13:46:07;9.40;99.90
17341;DHT22;8788;49.930;8.660;2023-01-16T13:48:36;9.20;99.90
17341;DHT22;8788;49.930;8.660;2023-01-16T13:51:11;9.10;99.90
17341;DHT22;8788;49.930;8.660;2023-01-16T13:53:40;9.00;99.90
17341;DHT22;8788;49.930;8.660;2023-01-16T13:56:13;8.90;99.90
17341;DHT22;8788;49.930;8.660;2023-01-16T13:58:44;8.80;99.90
17341;DHT22;8788;49.930;8.660;2023-01-16T14:01:54;8.80;99.90
17341;DHT22;8788;49.930;8.660;2023-01-16T14:04:32;8.70;99.90
17341;DHT22;8788;49.930;8.660;2023-01-16T14:07:02;8.70;99.90
17341;DHT22;8788;49.930;8.660;2023-01-16T14:10:22;8.60;99.90
17341;DHT22;8788;49.930;8.660;2023-01-16T14:13:02;8.50;99.90
17341;DHT22;8788;49.930;8.660;2023-01-16T14:15:50;8.40;99.90
17341;DHT22;8788;49.930;8.660;2023-01-16T14:18:37;8.40;99.90
17341;DHT22;8788;49.930;8.660;2023-01-16T14:21:09;8.40;99.90
17341;DHT22;8788;49.930;8.660;2023-01-16T14:23:37;8.60;99.90
17341;DHT22;8788;49.930;8.660;2023-01-16T14:26:31;8.80;99.90
17341;DHT22;8788;49.930;8.660;2023-01-16T14:29:03;8.70;99.90
17341;DHT22;8788;49.930;8.660;2023-01-16T14:31:37;8.60;99.90
17341;DHT22;8788;49.930;8.660;2023-01-16T14:34:09;8.50;99.90
17341;DHT22;8788;49.930;8.660;2023-01-16T14:36:42;8.40;99.90
17341;DHT22;8788;49.930;8.660;2023-01-16T14:39:26;8.30;99.90
17341;DHT22;8788;49.930;8.660;2023-01-16T14:41:55;8.30;99.90
17341;DHT22;8788;49.930;8.660;2023-01-16T14:45:04;8.30;99.90
17341;DHT22;8788;49.930;8.660;2023-01-16T14:47:55;8.20;99.90
17341;DHT22;8788;49.930;8.660;2023-01-16T14:50:43;8.20;99.90
17341;DHT22;8788;49.930;8.660;2023-01-16T14:53:28;8.10;99.90
17341;DHT22;8788;49.930;8.660;2023-01-16T14:56:21;8.10;99.90
17341;DHT22;8788;49.930;8.660;2023-01-16T14:58:54;8.10;99.90
17341;DHT22;8788;49.930;8.660;2023-01-16T15:01:27;8.10;99.90
17341;DHT22;8788;49.930;8.660;2023-01-16T15:04:13;8.10;99.90
17341;DHT22;8788;49.930;8.660;2023-01-16T15:06:44;8.10;99.90
17341;DHT22;8788;49.930;8.660;2023-01-16T15:09:15;8.10;99.90
17341;DHT22;8788;49.930;8.660;2023-01-16T15:11:49;8.10;99.90
17341;DHT22;8788;49.930;8.660;2023-01-16T15:14:19;8.10;99.90
17341;DHT22;8788;49.930;8.660;2023-01-16T15:17:05;8.10;99.90
17341;DHT22;8788;49.930;8.660;2023-01-16T15:20:14;8.10;99.90
17341;DHT22;8788;49.930;8.660;2023-01-16T15:23:02;8.10;99.90
17341;DHT22;8788;49.930;8.660;2023-01-16T15:25:41;8.10;99.90
17341;DHT22;8788;49.930;8.660;2023-01-16T15:28:16;8.10;99.90
17341;DHT22;8788;49.930;8.660;2023-01-16T15:30:45;8.10;99.90
17341;DHT22;8788;49.930;8.660;2023-01-16T15:33:25;8.00;99.90
17341;DHT22;8788;49.930;8.660;2023-01-16T15:36:18;8.00;99.90
17341;DHT22;8788;49.930;8.660;2023-01-16T15:38:47;7.90;99.90
17341;DHT22;8788;49.930;8.660;2023-01-16T15:41:18;7.90;99.90
17341;DHT22;8788;49.930;8.660;2023-01-16T15:44:13;7.90;99.90
17341;DHT22;8788;49.930;8.660;2023-01-16T15:50:04;7.40;99.90
17341;DHT22;8788;49.930;8.660;2023-01-16T15:52:35;7.30;99.90
17341;DHT22;8788;49.930;8.660;2023-01-16T15:55:10;7.20;99.90
17341;DHT22;8788;49.930;8.660;2023-01-16T15:57:37;7.20;99.90
17341;DHT22;8788;49.930;8.660;2023-01-16T16:00:23;7.20;99.90
17341;DHT22;8788;49.930;8.660;2023-01-16T16:02:52;7.20;99.90
17341;DHT22;8788;49.930;8.660;2023-01-16T16:05:24;7.20;99.90
17341;DHT22;8788;49.930;8.660;2023-01-16T16:07:52;7.20;99.90
17341;DHT22;8788;49.930;8.660;2023-01-16T16:10:19;7.20;99.90
17341;DHT22;8788;49.930;8.660;2023-01-16T16:13:04;7.30;99.90
17341;DHT22;8788;49.930;8.660;2023-01-16T16:15:32;7.20;99.90
17341;DHT22;8788;49.930;8.660;2023-01-16T16:18:18;7.10;99.90
17341;DHT22;8788;49.930;8.660;2023-01-16T16:20:47;7.10;99.90
17341;DHT22;8788;49.930;8.660;2023-01-16T16:23:17;7.10;99.90
17341;DHT22;8788;49.930;8.660;2023-01-16T16:25:48;7.00;99.90
17341;DHT22;8788;49.930;8.660;2023-01-16T16:28:19;6.80;99.90
17341;DHT22;8788;49.930;8.660;2023-01-16T16:30:48;6.80;99.90
17341;DHT22;8788;49.930;8.660;2023-01-16T16:33:21;6.90;99.90
17341;DHT22;8788;49.930;8.660;2023-01-16T16:35:50;6.90;99.90
17341;DHT22;8788;49.930;8.660;2023-01-16T16:38:20;6.90;99.90
17341;DHT22;8788;49.930;8.660;2023-01-16T16:43:44;7.00;99.90
17341;DHT22;8788;49.930;8.660;2023-01-16T16:46:30;6.90;99.90
17341;DHT22;8788;49.930;8.660;2023-01-16T16:48:58;6.90;99.90
17341;DHT22;8788;49.930;8.660;2023-01-16T16:51:45;6.80;99.90
17341;DHT22;8788;49.930;8.660;2023-01-16T16:54:14;6.90;99.90
17341;DHT22;8788;49.930;8.660;2023-01-16T16:56:45;6.90;99.90
17341;DHT22;8788;49.930;8.660;2023-01-16T16:59:15;6.80;99.90
17341;DHT22;8788;49.930;8.660;2023-01-16T17:01:46;6.80;99.90
17341;DHT22;8788;49.930;8.660;2023-01-16T17:04:14;6.80;99.90
17341;DHT22;8788;49.930;8.660;2023-01-16T17:06:45;6.70;99.90
17341;DHT22;8788;49.930;8.660;2023-01-16T17:09:14;6.80;99.90
17341;DHT22;8788;49.930;8.660;2023-01-16T17:11:43;6.80;99.90
17341;DHT22;8788;49.930;8.660;2023-01-16T17:14:11;6.80;99.90
17341;DHT22;8788;49.930;8.660;2023-01-16T17:16:38;6.70;99.90
17341;DHT22;8788;49.930;8.660;2023-01-16T17:19:15;6.70;99.90
17341;DHT22;8788;49.930;8.660;2023-01-16T17:21:45;6.70;99.90
17341;DHT22;8788;49.930;8.660;2023-01-16T17:24:14;6.70;99.90
17341;DHT22;8788;49.930;8.660;2023-01-16T17:26:42;6.70;99.90
17341;DHT22;8788;49.930;8.660;2023-01-16T17:29:09;6.60;99.90
17341;DHT22;8788;49.930;8.660;2023-01-16T17:31:38;6.60;99.90
17341;DHT22;8788;49.930;8.660;2023-01-16T17:34:09;6.60;99.90
17341;DHT22;8788;49.930;8.660;2023-01-16T17:36:38;6.70;99.90
17341;DHT22;8788;49.930;8.660;2023-01-16T17:39:07;6.70;99.90
17341;DHT22;8788;49.930;8.660;2023-01-16T17:41:35;6.70;99.90
17341;DHT22;8788;49.930;8.660;2023-01-16T17:44:25;6.70;99.90
17341;DHT22;8788;49.930;8.660;2023-01-16T17:47:10;6.70;99.90
17341;DHT22;8788;49.930;8.660;2023-01-16T17:49:37;6.70;99.90
17341;DHT22;8788;49.930;8.660;2023-01-16T17:52:18;6.70;99.90
17341;DHT22;8788;49.930;8.660;2023-01-16T17:54:47;6.60;99.90
17341;DHT22;8788;49.930;8.660;2023-01-16T17:57:31;6.60;99.90
17341;DHT22;8788;49.930;8.660;2023-01-16T17:59:58;6.70;99.90
17341;DHT22;8788;49.930;8.660;2023-01-16T18:02:26;6.60;99.90
17341;DHT22;8788;49.930;8.660;2023-01-16T18:04:53;6.60;99.90
17341;DHT22;8788;49.930;8.660;2023-01-16T18:07:20;6.60;99.90
17341;DHT22;8788;49.930;8.660;2023-01-16T18:09:48;6.60;99.90
17341;DHT22;8788;49.930;8.660;2023-01-16T18:12:16;6.60;99.90
17341;DHT22;8788;49.930;8.660;2023-01-16T18:15:01;6.60;99.90
17341;DHT22;8788;49.930;8.660;2023-01-16T18:17:45;6.60;99.90
17341;DHT22;8788;49.930;8.660;2023-01-16T18:20:12;6.60;99.90
17341;DHT22;8788;49.930;8.660;2023-01-16T18:22:39;6.50;99.90
17341;DHT22;8788;49.930;8.660;2023-01-16T18:25:08;6.50;99.90
17341;DHT22;8788;49.930;8.660;2023-01-16T18:27:35;6.50;99.90
17341;DHT22;8788;49.930;8.660;2023-01-16T18:30:03;6.50;99.90
17341;DHT22;8788;49.930;8.660;2023-01-16T18:32:30;6.50;99.90
17341;DHT22;8788;49.930;8.660;2023-01-16T18:35:00;6.50;99.90
17341;DHT22;8788;49.930;8.660;2023-01-16T18:37:32;6.50;99.90
17341;DHT22;8788;49.930;8.660;2023-01-16T18:40:00;6.50;99.90
17341;DHT22;8788;49.930;8.660;2023-01-16T18:42:45;6.50;99.90
17341;DHT22;8788;49.930;8.660;2023-01-16T18:45:32;6.50;99.90
17341;DHT22;8788;49.930;8.660;2023-01-16T18:48:16;6.50;99.90
17341;DHT22;8788;49.930;8.660;2023-01-16T18:51:01;6.50;99.90
17341;DHT22;8788;49.930;8.660;2023-01-16T18:53:49;6.50;99.90
17341;DHT22;8788;49.930;8.660;2023-01-16T18:56:36;6.50;99.90
17341;DHT22;8788;49.930;8.660;2023-01-16T18:59:25;6.50;99.90
17341;DHT22;8788;49.930;8.660;2023-01-16T19:02:36;6.40;99.90
17341;DHT22;8788;49.930;8.660;2023-01-16T19:05:04;6.40;99.90
17341;DHT22;8788;49.930;8.660;2023-01-16T19:07:31;6.40;99.90
17341;DHT22;8788;49.930;8.660;2023-01-16T19:10:02;6.40;99.90
17341;DHT22;8788;49.930;8.660;2023-01-16T19:12:32;6.40;99.90
17341;DHT22;8788;49.930;8.660;2023-01-16T19:15:02;6.40;99.90
17341;DHT22;8788;49.930;8.660;2023-01-16T19:17:29;6.30;99.90
17341;DHT22;8788;49.930;8.660;2023-01-16T19:19:56;6.30;99.90
17341;DHT22;8788;49.930;8.660;2023-01-16T19:22:23;6.30;99.90
17341;DHT22;8788;49.930;8.660;2023-01-16T19:24:50;6.20;99.90
17341;DHT22;8788;49.930;8.660;2023-01-16T19:27:17;6.20;99.90
17341;DHT22;8788;49.930;8.660;2023-01-16T19:29:49;6.20;99.90
17341;DHT22;8788;49.930;8.660;2023-01-16T19:32:20;6.10;99.90
17341;DHT22;8788;49.930;8.660;2023-01-16T19:34:53;6.00;99.90
17341;DHT22;8788;49.930;8.660;2023-01-16T19:37:21;5.90;99.90
17341;DHT22;8788;49.930;8.660;2023-01-16T19:39:48;5.90;99.90
17341;DHT22;8788;49.930;8.660;2023-01-16T19:42:15;5.90;99.90
17341;DHT22;8788;49.930;8.660;2023-01-16T19:45:00;5.80;99.90
17341;DHT22;8788;49.930;8.660;2023-01-16T19:47:46;5.80;99.90
17341;DHT22;8788;49.930;8.660;2023-01-16T19:50:15;5.80;99.90
17341;DHT22;8788;49.930;8.660;2023-01-16T19:52:45;5.80;99.90
17341;DHT22;8788;49.930;8.660;2023-01-16T19:55:12;5.80;99.90
17341;DHT22;8788;49.930;8.660;2023-01-16T19:57:42;5.80;99.90
17341;DHT22;8788;49.930;8.660;2023-01-16T20:00:10;5.80;99.90
17341;DHT22;8788;49.930;8.660;2023-01-16T20:02:38;5.80;99.90
17341;DHT22;8788;49.930;8.660;2023-01-16T20:05:07;5.80;99.90
17341;DHT22;8788;49.930;8.660;2023-01-16T20:07:34;5.70;99.90
17341;DHT22;8788;49.930;8.660;2023-01-16T20:10:02;5.70;99.90
17341;DHT22;8788;49.930;8.660;2023-01-16T20:12:29;5.70;99.90
17341;DHT22;8788;49.930;8.660;2023-01-16T20:14:59;5.70;99.90
17341;DHT22;8788;49.930;8.660;2023-01-16T20:17:27;5.70;99.90
17341;DHT22;8788;49.930;8.660;2023-01-16T20:19:55;5.80;99.90
17341;DHT22;8788;49.930;8.660;2023-01-16T20:22:24;5.80;99.90
17341;DHT22;8788;49.930;8.660;2023-01-16T20:24:51;5.70;99.90
17341;DHT22;8788;49.930;8.660;2023-01-16T20:27:18;5.80;99.90
17341;DHT22;8788;49.930;8.660;2023-01-16T20:29:46;5.80;99.90
17341;DHT22;8788;49.930;8.660;2023-01-16T20:32:14;5.80;99.90
17341;DHT22;8788;49.930;8.660;2023-01-16T20:34:41;5.80;99.90
17341;DHT22;8788;49.930;8.660;2023-01-16T20:37:08;5.80;99.90
17341;DHT22;8788;49.930;8.660;2023-01-16T20:39:37;5.70;99.90
17341;DHT22;8788;49.930;8.660;2023-01-16T20:42:04;5.80;99.90
17341;DHT22;8788;49.930;8.660;2023-01-16T20:44:49;5.80;99.90
17341;DHT22;8788;49.930;8.660;2023-01-16T20:47:33;5.80;99.90
17341;DHT22;8788;49.930;8.660;2023-01-16T20:50:00;5.80;99.90
17341;DHT22;8788;49.930;8.660;2023-01-16T20:52:30;5.80;99.90
17341;DHT22;8788;49.930;8.660;2023-01-16T20:54:59;5.80;99.90